createdAt,value
2023-03-14T00:00:22.155Z,96367.13
2023-03-14T00:02:53.995Z,96370.88
2023-03-14T00:05:20.562Z,96339.47
2023-03-14T00:07:46.953Z,96360.25
2023-03-14T00:10:15.475Z,96375.41
2023-03-14T00:12:42.711Z,96367.66
2023-03-14T00:15:09.614Z,96370.31
2023-03-14T00:17:36.751Z,96365.53
2023-03-14T00:20:09.312Z,96357.53
2023-03-14T00:22:36.981Z,96348.72
2023-03-14T00:25:05.770Z,96347.94
2023-03-14T00:27:33.061Z,96330.13
2023-03-14T00:29:59.504Z,96329.31
2023-03-14T00:32:26.135Z,96329.63
2023-03-14T00:34:52.662Z,96320.84
2023-03-14T00:37:19.355Z,96331.75
2023-03-14T00:39:45.797Z,96336.00
2023-03-14T00:42:12.468Z,96348.56
2023-03-14T00:44:38.867Z,96348.28
2023-03-14T00:47:07.969Z,96348.00
2023-03-14T00:49:34.812Z,96354.06
2023-03-14T00:52:01.224Z,96347.91
2023-03-14T00:54:27.943Z,96361.47
2023-03-14T00:56:54.429Z,96362.34
2023-03-14T00:59:21.059Z,96360.72
2023-03-14T01:01:47.693Z,96359.13
2023-03-14T01:04:14.193Z,96359.16
2023-03-14T01:06:40.710Z,96357.81
2023-03-14T01:09:07.399Z,96346.38
2023-03-14T01:11:36.005Z,96351.66
2023-03-14T01:14:03.769Z,96331.38
2023-03-14T01:16:33.808Z,96343.09
2023-03-14T01:19:02.160Z,96330.56
2023-03-14T01:21:31.180Z,96343.94
2023-03-14T01:23:59.175Z,96337.50
2023-03-14T01:26:27.875Z,96335.38
2023-03-14T01:28:56.139Z,96329.75
2023-03-14T01:31:23.853Z,96338.34
2023-03-14T01:33:52.561Z,96343.31
2023-03-14T01:36:19.502Z,96354.00
2023-03-14T01:38:46.999Z,96344.69
2023-03-14T01:41:19.365Z,96335.88
2023-03-14T01:43:46.850Z,96335.38
2023-03-14T01:46:27.247Z,96328.16
2023-03-14T01:49:06.292Z,96325.03
2023-03-14T01:51:47.238Z,96301.84
2023-03-14T01:54:19.979Z,96305.84
2023-03-14T01:56:54.281Z,96313.53
2023-03-14T01:59:20.951Z,96307.19
2023-03-14T02:01:49.465Z,96293.59
2023-03-14T02:04:18.712Z,96284.56
2023-03-14T02:06:50.597Z,96279.00
2023-03-14T02:09:19.418Z,96278.75
2023-03-14T02:11:46.606Z,96265.19
2023-03-14T02:14:48.938Z,96266.53
2023-03-14T02:17:26.118Z,96268.66
2023-03-14T02:20:31.970Z,96255.38
2023-03-14T02:22:59.953Z,96249.81
2023-03-14T02:25:45.744Z,96258.00
2023-03-14T02:28:13.621Z,96252.66
2023-03-14T02:30:41.171Z,96248.91
2023-03-14T02:33:14.052Z,96239.34
2023-03-14T02:35:54.157Z,96231.81
2023-03-14T02:38:27.753Z,96239.28
2023-03-14T02:40:54.308Z,96237.16
2023-03-14T02:43:21.496Z,96231.06
2023-03-14T02:45:54.908Z,96213.53
2023-03-14T02:48:40.544Z,96241.16
2023-03-14T02:51:07.392Z,96231.91
2023-03-14T02:53:36.791Z,96237.78
2023-03-14T03:09:05.177Z,96218.59
2023-03-14T03:11:32.615Z,96210.56
2023-03-14T03:13:59.270Z,96216.66
2023-03-14T03:16:28.110Z,96211.09
2023-03-14T03:18:54.676Z,96195.94
2023-03-14T03:21:24.205Z,96190.97
2023-03-14T03:23:51.340Z,96177.69
2023-03-14T03:26:17.770Z,96160.88
2023-03-14T03:28:44.271Z,96159.03
2023-03-14T03:31:13.294Z,96144.66
2023-03-14T03:33:40.001Z,96131.34
2023-03-14T03:36:07.609Z,96131.84
2023-03-14T03:38:37.187Z,96117.00
2023-03-14T03:41:09.026Z,96108.47
2023-03-14T03:43:35.954Z,96129.97
2023-03-14T03:46:06.154Z,96131.84
2023-03-14T03:48:33.439Z,96126.00
2023-03-14T03:51:03.444Z,96133.19
2023-03-14T03:53:33.912Z,96127.34
2023-03-14T03:56:04.998Z,96116.44
2023-03-14T03:58:31.721Z,96115.09
2023-03-14T04:00:58.156Z,96110.28
2023-03-14T04:03:24.927Z,96116.41
2023-03-14T04:06:03.761Z,96105.50
2023-03-14T04:08:32.436Z,96095.69
2023-03-14T04:11:00.615Z,96096.25
2023-03-14T04:13:45.506Z,96082.69
2023-03-14T04:16:22.249Z,96079.16
2023-03-14T04:18:49.880Z,96087.44
2023-03-14T04:21:20.005Z,96088.53
2023-03-14T04:23:49.729Z,96088.00
2023-03-14T04:26:17.865Z,96093.53
2023-03-14T04:28:44.856Z,96090.56
2023-03-14T04:31:14.020Z,96094.00
2023-03-14T04:33:40.764Z,96094.84
2023-03-14T04:36:08.684Z,96089.31
2023-03-14T04:38:36.134Z,96084.75
2023-03-14T04:41:03.105Z,96078.84
2023-03-14T04:43:32.314Z,96077.84
2023-03-14T04:46:04.517Z,96047.03
2023-03-14T04:48:30.954Z,96051.50
2023-03-14T04:50:58.741Z,96042.75
2023-03-14T04:53:26.155Z,96045.16
2023-03-14T04:55:56.595Z,96024.94
2023-03-14T04:58:25.835Z,96026.56
2023-03-14T05:00:53.884Z,96020.44
2023-03-14T05:03:39.154Z,96020.69
2023-03-14T05:06:08.716Z,96014.34
2023-03-14T05:09:01.857Z,96021.72
2023-03-14T05:11:46.864Z,96017.25
2023-03-14T05:14:36.198Z,96005.34
2023-03-14T05:17:02.566Z,96016.75
2023-03-14T05:19:36.281Z,96020.44
2023-03-14T05:22:21.121Z,96016.19
2023-03-14T05:24:57.732Z,96015.63
2023-03-14T05:27:44.425Z,96013.78
2023-03-14T05:30:29.601Z,96019.13
2023-03-14T05:33:28.374Z,96020.78
2023-03-14T05:36:08.475Z,96011.72
2023-03-14T05:39:04.443Z,96021.84
2023-03-14T05:41:39.982Z,96017.56
2023-03-14T05:44:22.853Z,96025.53
2023-03-14T05:46:55.381Z,96024.44
2023-03-14T05:49:34.970Z,96011.47
2023-03-14T05:52:32.793Z,96017.09
2023-03-14T05:55:30.588Z,96024.53
2023-03-14T05:58:21.393Z,95989.41
2023-03-14T06:01:08.016Z,96016.00
2023-03-14T06:03:57.186Z,96021.34
2023-03-14T06:06:23.729Z,96011.03
2023-03-14T06:08:50.883Z,96010.72
2023-03-14T06:11:17.441Z,96021.88
2023-03-14T06:13:43.961Z,96031.97
2023-03-14T06:16:10.455Z,96031.44
2023-03-14T06:18:37.101Z,96038.06
2023-03-14T06:21:07.003Z,96041.47
2023-03-14T06:23:36.386Z,96033.50
2023-03-14T06:26:04.058Z,96039.41
2023-03-14T06:28:30.703Z,96010.09
2023-03-14T06:31:01.353Z,96040.38
2023-03-14T06:33:33.060Z,96039.84
2023-03-14T06:36:00.654Z,96040.38
2023-03-14T06:38:27.289Z,96047.88
2023-03-14T06:40:56.110Z,96051.28
2023-03-14T06:43:34.539Z,96043.81
2023-03-14T06:46:01.318Z,96061.44
2023-03-14T06:48:27.975Z,96066.13
2023-03-14T06:50:55.737Z,96065.66
2023-03-14T06:53:22.902Z,96051.59
2023-03-14T06:55:49.448Z,96057.91
2023-03-14T06:58:17.795Z,96066.75
2023-03-14T07:00:45.736Z,96064.63
2023-03-14T07:03:16.206Z,96065.94
2023-03-14T07:05:46.193Z,96072.84
2023-03-14T07:08:12.659Z,96059.81
2023-03-14T07:10:39.088Z,96070.72
2023-03-14T07:13:07.668Z,96061.09
2023-03-14T07:15:39.000Z,96055.31
2023-03-14T07:18:09.134Z,96058.44
2023-03-14T07:20:35.614Z,96061.38
2023-03-14T07:23:04.551Z,96074.44
2023-03-14T07:25:38.801Z,96060.31
2023-03-14T07:28:05.719Z,96070.19
2023-03-14T07:30:33.105Z,96069.44
2023-03-14T07:33:01.994Z,96063.88
2023-03-14T07:35:29.102Z,96055.81
2023-03-14T07:37:55.530Z,96053.47
2023-03-14T07:40:29.053Z,96058.53
2023-03-14T07:42:56.233Z,96048.44
2023-03-14T07:45:28.595Z,96049.53
2023-03-14T07:47:58.347Z,96063.38
2023-03-14T07:50:26.757Z,96067.09
2023-03-14T07:52:53.455Z,96052.47
2023-03-14T07:55:20.487Z,96068.94
2023-03-14T07:57:46.998Z,96066.84
2023-03-14T08:00:16.060Z,96081.47
2023-03-14T08:02:43.115Z,96074.56
2023-03-14T08:05:10.320Z,96078.81
2023-03-14T08:07:36.825Z,96074.31
2023-03-14T08:10:03.763Z,96062.34
2023-03-14T08:12:30.214Z,96067.66
2023-03-14T08:14:56.591Z,96067.94
2023-03-14T08:17:23.108Z,96071.38
2023-03-14T08:19:49.564Z,96083.59
2023-03-14T08:22:17.833Z,96080.91
2023-03-14T08:24:46.251Z,96087.84
2023-03-14T08:27:15.293Z,96085.22
2023-03-14T08:29:42.876Z,96075.38
2023-03-14T08:32:09.647Z,96088.69
2023-03-14T08:34:36.266Z,96087.38
2023-03-14T08:37:04.416Z,96083.38
2023-03-14T08:39:32.930Z,96080.44
2023-03-14T08:41:59.370Z,96078.81
2023-03-14T08:44:25.827Z,96079.06
2023-03-14T08:46:52.360Z,96079.91
2023-03-14T08:49:18.865Z,96088.63
2023-03-14T08:51:45.300Z,96085.22
2023-03-14T08:54:12.098Z,96070.84
2023-03-14T08:56:39.133Z,96085.25
2023-03-14T08:59:06.401Z,96083.38
2023-03-14T09:01:33.117Z,96076.97
2023-03-14T09:03:59.699Z,96085.22
2023-03-14T09:06:26.132Z,96089.72
2023-03-14T09:08:52.665Z,96091.06
2023-03-14T09:11:19.643Z,96097.72
2023-03-14T09:13:46.038Z,96095.06
2023-03-14T09:16:12.652Z,96098.53
2023-03-14T09:18:39.086Z,96094.25
2023-03-14T09:21:06.155Z,96110.50
2023-03-14T09:23:32.977Z,96104.38
2023-03-14T09:25:59.679Z,96097.19
2023-03-14T09:28:26.566Z,96099.06
2023-03-14T09:30:53.293Z,96105.41
2023-03-14T09:33:19.827Z,96114.47
2023-03-14T09:35:46.404Z,96107.53
2023-03-14T09:38:13.051Z,96108.59
2023-03-14T09:40:40.086Z,96105.94
2023-03-14T09:43:06.581Z,96112.84
2023-03-14T09:45:37.922Z,96117.16
2023-03-14T09:48:05.733Z,96096.09
2023-03-14T09:50:39.780Z,96116.06
2023-03-14T09:53:13.907Z,96111.00
2023-03-14T09:55:40.803Z,96125.66
2023-03-14T09:58:14.008Z,96106.75
2023-03-14T10:00:40.688Z,96106.22
2023-03-14T10:03:13.062Z,96116.59
2023-03-14T10:05:41.098Z,96104.91
2023-03-14T10:08:10.626Z,96105.41
2023-03-14T10:10:37.549Z,96106.19
2023-03-14T10:13:15.347Z,96093.69
2023-03-14T10:15:41.997Z,96094.22
2023-03-14T10:18:13.841Z,96110.69
2023-03-14T10:20:43.349Z,96114.16
2023-03-14T10:23:12.765Z,96107.53
2023-03-14T10:25:42.707Z,96114.72
2023-03-14T10:28:25.509Z,96115.53
2023-03-14T10:30:52.490Z,96125.13
2023-03-14T10:33:18.855Z,96126.69
2023-03-14T10:35:46.278Z,96128.03
2023-03-14T10:38:18.473Z,96138.44
2023-03-14T10:40:50.456Z,96133.09
2023-03-14T10:43:22.153Z,96143.75
2023-03-14T10:46:02.320Z,96141.59
2023-03-14T10:48:38.348Z,96142.66
2023-03-14T10:51:07.714Z,96144.78
2023-03-14T10:53:46.376Z,96151.16
2023-03-14T10:56:19.314Z,96164.75
2023-03-14T10:58:48.175Z,96170.06
2023-03-14T11:01:33.291Z,96188.94
2023-03-14T11:04:16.124Z,96203.81
2023-03-14T11:06:51.044Z,96213.41
2023-03-14T11:09:38.015Z,96220.31
2023-03-14T11:12:30.101Z,96234.09
2023-03-14T11:15:04.387Z,96214.31
2023-03-14T11:17:51.006Z,96255.84
2023-03-14T11:20:26.620Z,96248.41
2023-03-14T11:23:15.724Z,96256.94
2023-03-14T11:25:46.000Z,96275.53
2023-03-14T11:28:23.757Z,96277.09
2023-03-14T11:30:55.841Z,96274.94
2023-03-14T11:33:28.370Z,96292.78
2023-03-14T11:35:57.676Z,96292.66
2023-03-14T11:38:49.072Z,96307.16
2023-03-14T11:41:37.232Z,96298.84
2023-03-14T11:44:20.694Z,96334.25
2023-03-14T11:46:58.784Z,96351.00
2023-03-14T11:49:36.853Z,96355.75
2023-03-14T11:52:09.544Z,96351.63
2023-03-14T11:54:47.903Z,96327.94
2023-03-14T11:57:17.771Z,96383.44
2023-03-14T11:59:56.335Z,96396.63
2023-03-14T12:02:33.267Z,96396.66
2023-03-14T12:05:03.707Z,96406.78
2023-03-14T12:07:40.898Z,96423.88
2023-03-14T12:10:07.746Z,96445.38
2023-03-14T12:12:34.747Z,96455.69
2023-03-14T12:15:04.115Z,96459.06
2023-03-14T12:17:39.830Z,96478.13
2023-03-14T12:20:15.393Z,96484.66
2023-03-14T12:22:54.678Z,96494.47
2023-03-14T12:25:30.602Z,96476.06
2023-03-14T12:27:57.203Z,96506.44
2023-03-14T12:30:56.084Z,96522.78
2023-03-14T12:33:29.350Z,96508.38
2023-03-14T12:36:04.795Z,96521.19
2023-03-14T12:38:37.362Z,96550.41
2023-03-14T12:41:18.296Z,96551.59
2023-03-14T12:43:44.833Z,96549.00
2023-03-14T12:46:14.050Z,96568.09
2023-03-14T12:48:41.358Z,96568.56
2023-03-14T12:51:19.909Z,96591.75
2023-03-14T12:54:01.725Z,96585.16
2023-03-14T12:56:47.383Z,96611.69
2023-03-14T12:59:41.679Z,96609.50
2023-03-14T13:02:08.162Z,96626.78
2023-03-14T13:04:40.062Z,96630.84
2023-03-14T13:07:12.770Z,96644.97
2023-03-14T13:10:01.202Z,96636.50
2023-03-14T13:12:38.382Z,96655.00
2023-03-14T13:15:18.105Z,96683.72
2023-03-14T13:17:45.311Z,96692.16
2023-03-14T13:20:23.860Z,96674.50
2023-03-14T13:22:50.874Z,96690.25
2023-03-14T13:25:22.088Z,96694.44
2023-03-14T13:27:49.197Z,96721.84
2023-03-14T13:30:28.358Z,96739.28
2023-03-14T13:32:56.702Z,96731.38
2023-03-14T13:35:25.978Z,96738.88
2023-03-14T13:38:16.041Z,96739.44
2023-03-14T13:40:44.814Z,96749.91
2023-03-14T13:43:16.908Z,96750.88
2023-03-14T13:46:02.163Z,96746.13
2023-03-14T13:48:30.935Z,96748.44
2023-03-14T13:51:00.405Z,96758.28
2023-03-14T13:53:26.842Z,96762.75
2023-03-14T13:55:54.250Z,96765.16
2023-03-14T13:58:24.248Z,96766.13
2023-03-14T14:01:03.763Z,96789.47
2023-03-14T14:03:38.138Z,96804.97
2023-03-14T14:06:06.569Z,96813.22
2023-03-14T14:08:35.566Z,96818.28
2023-03-14T14:11:05.433Z,96821.66
2023-03-14T14:13:35.809Z,96825.06
2023-03-14T14:16:04.818Z,96838.34
2023-03-14T14:18:33.256Z,96854.53
2023-03-14T14:21:00.122Z,96848.88
2023-03-14T14:23:29.731Z,96872.84
2023-03-14T14:25:59.798Z,96848.13
2023-03-14T14:28:35.413Z,96879.69
2023-03-14T14:31:26.064Z,96877.34
2023-03-14T14:34:05.200Z,96871.00
2023-03-14T14:36:39.505Z,96892.72
2023-03-14T14:39:18.964Z,96878.25
2023-03-14T14:41:49.632Z,96893.22
2023-03-14T14:44:28.819Z,96885.94
2023-03-14T14:46:56.592Z,96894.25
2023-03-14T14:49:30.056Z,96884.06
2023-03-14T14:52:04.010Z,96885.91
2023-03-14T14:54:55.604Z,96889.41
2023-03-14T14:57:31.226Z,96885.88
2023-03-14T15:00:05.076Z,96893.25
2023-03-14T15:02:47.301Z,96892.94
2023-03-14T15:05:15.951Z,96901.47
2023-03-14T15:07:42.461Z,96904.22
2023-03-14T15:10:14.147Z,96908.06
2023-03-14T15:12:41.036Z,96909.84
2023-03-14T15:15:08.702Z,96911.63
2023-03-14T15:17:36.925Z,96904.28
2023-03-14T15:20:08.042Z,96902.94
2023-03-14T15:22:34.577Z,96921.19
2023-03-14T15:25:01.012Z,96904.22
2023-03-14T15:27:31.736Z,96913.72
2023-03-14T15:29:58.285Z,96913.72
2023-03-14T15:32:24.741Z,96927.31
2023-03-14T15:34:51.153Z,96930.53
2023-03-14T15:37:17.750Z,96901.00
2023-03-14T15:39:44.644Z,96926.19
2023-03-14T15:42:11.512Z,96942.13
2023-03-14T15:44:38.152Z,96941.81
2023-03-14T15:47:04.747Z,96939.97
2023-03-14T15:49:31.141Z,96948.16
2023-03-14T15:51:58.196Z,96946.16
2023-03-14T15:54:29.313Z,96940.44
2023-03-14T15:56:56.806Z,96936.91
2023-03-14T15:59:24.325Z,96930.69
2023-03-14T16:01:50.855Z,96946.22
2023-03-14T16:04:17.762Z,96938.81
2023-03-14T16:06:45.554Z,96938.34
2023-03-14T16:09:15.126Z,96936.25
2023-03-14T16:11:41.598Z,96941.69
2023-03-14T16:14:08.059Z,96933.75
2023-03-14T16:16:34.611Z,96935.59
2023-03-14T16:19:01.052Z,96947.84
2023-03-14T16:21:27.665Z,96952.66
2023-03-14T16:23:54.198Z,96951.63
2023-03-14T16:26:21.299Z,96961.22
2023-03-14T16:28:48.801Z,96954.94
2023-03-14T16:31:18.447Z,96965.72
2023-03-14T16:33:45.437Z,96971.50
2023-03-14T16:36:13.607Z,96972.53
2023-03-14T16:38:42.352Z,96973.34
2023-03-14T16:41:15.027Z,96981.88
2023-03-14T16:43:42.453Z,96987.44
2023-03-14T16:46:13.774Z,96991.38
2023-03-14T16:48:40.643Z,96988.25
2023-03-14T16:51:07.133Z,96998.94
2023-03-14T16:53:33.564Z,97007.41
2023-03-14T16:56:00.465Z,97009.06
2023-03-14T16:58:27.973Z,97008.78
2023-03-14T17:00:54.593Z,97013.84
2023-03-14T17:03:21.114Z,97022.09
2023-03-14T17:05:49.662Z,97023.59
2023-03-14T17:08:18.504Z,97030.50
2023-03-14T17:10:45.462Z,97045.81
2023-03-14T17:13:12.582Z,97056.44
2023-03-14T17:15:39.124Z,97061.47
2023-03-14T17:18:06.011Z,97061.94
2023-03-14T17:20:32.868Z,97069.22
2023-03-14T17:22:59.302Z,97082.47
2023-03-14T17:25:25.744Z,97081.09
2023-03-14T17:27:52.146Z,97088.75
2023-03-14T17:30:18.631Z,97101.75
2023-03-14T17:32:45.142Z,97093.81
2023-03-14T17:35:11.566Z,97106.00
2023-03-14T17:37:38.043Z,97108.47
2023-03-14T17:40:05.164Z,97123.88
2023-03-14T17:42:31.558Z,97137.84
2023-03-14T17:44:58.706Z,97126.22
2023-03-14T17:47:25.123Z,97143.84
2023-03-14T17:49:51.686Z,97155.72
2023-03-14T17:52:18.166Z,97157.69
2023-03-14T17:54:44.593Z,97171.03
2023-03-14T17:57:11.645Z,97175.91
2023-03-14T17:59:38.147Z,97173.69
2023-03-14T18:02:05.262Z,97185.81
2023-03-14T18:04:32.034Z,97195.16
2023-03-14T18:06:58.495Z,97204.25
2023-03-14T18:09:24.955Z,97200.03
2023-03-14T18:11:58.846Z,97209.75
2023-03-14T18:14:28.560Z,97201.41
2023-03-14T18:16:55.028Z,97219.28
2023-03-14T18:19:21.603Z,97218.03
2023-03-14T18:21:48.045Z,97225.53
2023-03-14T18:24:14.545Z,97235.88
2023-03-14T18:26:40.950Z,97240.69
2023-03-14T18:29:07.434Z,97245.09
2023-03-14T18:31:34.945Z,97238.47
2023-03-14T18:34:01.649Z,97260.38
2023-03-14T18:36:28.439Z,97256.06
2023-03-14T18:38:56.676Z,97273.63
2023-03-14T18:41:24.580Z,97270.81
2023-03-14T18:43:53.726Z,97267.00
2023-03-14T18:46:23.430Z,97289.16
2023-03-14T18:48:56.775Z,97285.66
2023-03-14T18:51:28.868Z,97285.28
2023-03-14T18:54:08.353Z,97297.22
2023-03-14T18:56:36.585Z,97299.00
2023-03-14T18:59:03.017Z,97304.31
2023-03-14T19:01:31.356Z,97311.19
2023-03-14T19:04:00.024Z,97307.25
2023-03-14T19:06:28.349Z,97318.66
2023-03-14T19:08:54.961Z,97317.03
2023-03-14T19:11:21.472Z,97298.13
2023-03-14T19:13:48.143Z,97318.28
2023-03-14T19:16:16.377Z,97327.28
2023-03-14T19:18:44.478Z,97329.09
2023-03-14T19:21:13.327Z,97322.75
2023-03-14T19:23:41.865Z,97328.56
2023-03-14T19:26:09.868Z,97339.00
2023-03-14T19:28:36.989Z,97337.25
2023-03-14T19:31:04.912Z,97350.34
2023-03-14T19:33:32.096Z,97348.72
2023-03-14T19:35:59.027Z,97352.41
2023-03-14T19:38:25.563Z,97361.13
2023-03-14T19:40:56.802Z,97380.97
2023-03-14T19:43:23.290Z,97393.81
2023-03-14T19:45:49.857Z,97412.31
2023-03-14T19:48:16.812Z,97432.63
2023-03-14T19:50:43.356Z,97439.38
2023-03-14T19:53:10.662Z,97435.81
2023-03-14T19:55:37.552Z,97450.38
2023-03-14T19:58:05.347Z,97470.31
2023-03-14T20:00:31.849Z,97464.38
2023-03-14T20:02:58.414Z,97490.00
2023-03-14T20:05:25.258Z,97497.38
2023-03-14T20:07:51.972Z,97506.41
2023-03-14T20:10:22.634Z,97513.13
2023-03-14T20:12:51.094Z,97519.63
2023-03-14T20:15:19.850Z,97518.19
2023-03-14T20:17:51.202Z,97530.72
2023-03-14T20:20:19.113Z,97543.44
2023-03-14T20:22:46.145Z,97562.50
2023-03-14T20:25:16.464Z,97539.31
2023-03-14T20:27:42.986Z,97582.91
2023-03-14T20:30:13.033Z,97583.47
2023-03-14T20:32:40.930Z,97582.53
2023-03-14T20:35:10.098Z,97598.72
2023-03-14T20:37:36.753Z,97602.97
2023-03-14T20:40:07.272Z,97612.66
2023-03-14T20:42:34.560Z,97630.53
2023-03-14T20:45:01.136Z,97603.13
2023-03-14T20:47:27.943Z,97641.81
2023-03-14T20:49:54.520Z,97655.56
2023-03-14T20:52:22.550Z,97652.69
2023-03-14T20:54:49.006Z,97647.22
2023-03-14T20:57:16.607Z,97641.09
2023-03-14T20:59:43.472Z,97638.81
2023-03-14T21:02:11.437Z,97644.72
2023-03-14T21:04:38.252Z,97646.25
2023-03-14T21:07:04.823Z,97647.28
2023-03-14T21:09:31.421Z,97640.75
2023-03-14T21:11:57.830Z,97630.13
2023-03-14T21:14:24.917Z,97634.44
2023-03-14T21:16:57.001Z,97635.84
2023-03-14T21:19:30.200Z,97633.00
2023-03-14T21:22:02.235Z,97637.69
2023-03-14T21:24:29.757Z,97631.41
2023-03-14T21:26:56.586Z,97627.59
2023-03-14T21:29:23.730Z,97630.44
2023-03-14T21:31:50.572Z,97632.50
2023-03-14T21:34:17.321Z,97635.13
2023-03-14T21:36:43.823Z,97636.53
2023-03-14T21:39:10.307Z,97650.19
2023-03-14T21:41:36.760Z,97656.84
2023-03-14T21:44:03.217Z,97650.78
2023-03-14T21:46:29.790Z,97654.03
2023-03-14T21:48:56.624Z,97668.41
2023-03-14T21:51:31.116Z,97669.63
2023-03-14T21:53:57.876Z,97674.50
2023-03-14T21:56:26.888Z,97677.69
2023-03-14T21:58:59.088Z,97672.59
2023-03-14T22:01:25.692Z,97688.00
2023-03-14T22:03:53.454Z,97698.94
2023-03-14T22:06:20.478Z,97696.84
2023-03-14T22:08:47.179Z,97708.66
2023-03-14T22:11:13.621Z,97709.50
2023-03-14T22:13:40.413Z,97724.41
2023-03-14T22:16:07.946Z,97726.06
2023-03-14T22:18:35.067Z,97730.50
2023-03-14T22:21:01.885Z,97740.44
2023-03-14T22:23:28.347Z,97702.13
2023-03-14T22:25:54.843Z,97744.25
2023-03-14T22:28:21.399Z,97758.69
2023-03-14T22:30:49.886Z,97752.41
2023-03-14T22:33:17.879Z,97750.78
2023-03-14T22:35:53.264Z,97746.56
2023-03-14T22:38:20.155Z,97750.47
2023-03-14T22:40:47.547Z,97753.59
2023-03-14T22:43:14.017Z,97744.75
2023-03-14T22:45:40.821Z,97773.50
2023-03-14T22:48:07.332Z,97771.06
2023-03-14T22:50:34.442Z,97781.72
2023-03-14T22:53:01.064Z,97785.19
2023-03-14T22:55:27.455Z,97785.31
2023-03-14T22:57:54.066Z,97792.34
2023-03-14T23:00:21.393Z,97799.47
2023-03-14T23:02:48.162Z,97796.41
2023-03-14T23:05:14.902Z,97807.75
2023-03-14T23:07:41.453Z,97810.53
2023-03-14T23:10:08.658Z,97807.63
2023-03-14T23:12:35.431Z,97816.16
2023-03-14T23:15:01.904Z,97815.28
2023-03-14T23:17:28.303Z,97826.69
2023-03-14T23:19:54.725Z,97824.19
2023-03-14T23:22:21.250Z,97824.53
2023-03-14T23:24:48.787Z,97829.81
2023-03-14T23:27:16.407Z,97829.03
2023-03-14T23:29:45.928Z,97834.66
2023-03-14T23:32:12.590Z,97845.53
2023-03-14T23:34:39.035Z,97848.38
2023-03-14T23:37:05.499Z,97853.66
2023-03-14T23:39:31.909Z,97854.44
2023-03-14T23:41:58.410Z,97856.66
2023-03-14T23:44:26.429Z,97855.00
2023-03-14T23:46:53.255Z,97857.47
2023-03-14T23:49:19.868Z,97860.34
2023-03-14T23:51:46.861Z,97862.81
2023-03-14T23:54:13.490Z,97874.97
2023-03-14T23:56:41.183Z,97876.53
2023-03-14T23:59:08.031Z,97892.06
